Langley, South Carolina
Current Conditions -  °F | °C
As of 5:53 PM on Saturday 25 Oct 2014 (Local Time) from KDNL Reporting Station
Clear Clear  
Wind Chill: 75°   Ceiling: Unl
Heat Index: 75°   Visibility: 10mi
Dew Point: 37°   Wind: 5mph
Humidity: 25%   Direction: 350°N
Pressure: 29.97"   Gusts: NA
Location:  33.52°N, 81.84°W
Report Text: KDNL 252153Z AUTO 35004KT 10SM CLR 24/03 A2997 RMK AO2 SLP147 T02390028 $
Loading
Personal Weather Stations






























Interactive Weather Map
Tropical Storm Tracking
New forecast layout! Learn more

10-Day Weather Forecast

Advertisements
Track Severe Weather on mobile